sensor_id;sensor_type;location;lat;lon;timestamp;P1;durP1;ratioP1;P2;durP2;ratioP2
26536;SDS011;14204;51.262;5.488;2023-04-01T00:00:28;4.93;;;1.58;;
26536;SDS011;14204;51.262;5.488;2023-04-01T00:02:54;5.03;;;1.65;;
26536;SDS011;14204;51.262;5.488;2023-04-01T00:05:20;5.38;;;1.30;;
26536;SDS011;14204;51.262;5.488;2023-04-01T00:07:46;4.00;;;1.58;;
26536;SDS011;14204;51.262;5.488;2023-04-01T00:10:12;5.68;;;1.27;;
26536;SDS011;14204;51.262;5.488;2023-04-01T00:12:39;4.30;;;1.63;;
26536;SDS011;14204;51.262;5.488;2023-04-01T00:15:06;4.95;;;2.10;;
26536;SDS011;14204;51.262;5.488;2023-04-01T00:17:33;7.53;;;2.08;;
26536;SDS011;14204;51.262;5.488;2023-04-01T00:19:59;5.07;;;1.40;;
26536;SDS011;14204;51.262;5.488;2023-04-01T00:22:25;7.18;;;1.45;;
26536;SDS011;14204;51.262;5.488;2023-04-01T00:24:51;6.95;;;1.63;;
26536;SDS011;14204;51.262;5.488;2023-04-01T00:27:17;7.72;;;1.60;;
26536;SDS011;14204;51.262;5.488;2023-04-01T00:29:44;4.57;;;1.30;;
26536;SDS011;14204;51.262;5.488;2023-04-01T00:32:11;2.97;;;1.30;;
26536;SDS011;14204;51.262;5.488;2023-04-01T00:34:37;3.83;;;1.40;;
26536;SDS011;14204;51.262;5.488;2023-04-01T00:37:03;5.30;;;1.67;;
26536;SDS011;14204;51.262;5.488;2023-04-01T00:39:29;4.45;;;1.67;;
26536;SDS011;14204;51.262;5.488;2023-04-01T00:41:56;2.63;;;1.50;;
26536;SDS011;14204;51.262;5.488;2023-04-01T00:44:23;5.35;;;1.42;;
26536;SDS011;14204;51.262;5.488;2023-04-01T00:46:50;9.52;;;1.80;;
26536;SDS011;14204;51.262;5.488;2023-04-01T00:49:18;4.35;;;1.35;;
26536;SDS011;14204;51.262;5.488;2023-04-01T00:51:47;4.05;;;1.63;;
26536;SDS011;14204;51.262;5.488;2023-04-01T00:54:17;5.05;;;1.73;;
26536;SDS011;14204;51.262;5.488;2023-04-01T00:56:46;3.10;;;1.20;;
26536;SDS011;14204;51.262;5.488;2023-04-01T00:59:44;4.55;;;1.00;;
26536;SDS011;14204;51.262;5.488;2023-04-01T01:04:39;10.88;;;1.98;;
26536;SDS011;14204;51.262;5.488;2023-04-01T01:12:40;4.40;;;1.67;;
26536;SDS011;14204;51.262;5.488;2023-04-01T01:18:03;3.67;;;1.20;;
26536;SDS011;14204;51.262;5.488;2023-04-01T01:21:04;4.10;;;1.23;;
26536;SDS011;14204;51.262;5.488;2023-04-01T01:29:35;4.50;;;1.45;;
26536;SDS011;14204;51.262;5.488;2023-04-01T01:37:31;2.88;;;1.48;;
26536;SDS011;14204;51.262;5.488;2023-04-01T01:40:04;4.78;;;2.00;;
26536;SDS011;14204;51.262;5.488;2023-04-01T01:42:33;3.40;;;1.83;;
26536;SDS011;14204;51.262;5.488;2023-04-01T01:45:02;3.80;;;2.25;;
26536;SDS011;14204;51.262;5.488;2023-04-01T01:47:30;5.65;;;2.40;;
26536;SDS011;14204;51.262;5.488;2023-04-01T01:49:58;2.20;;;1.98;;
26536;SDS011;14204;51.262;5.488;2023-04-01T01:52:26;3.42;;;1.75;;
26536;SDS011;14204;51.262;5.488;2023-04-01T01:54:54;3.65;;;2.05;;
26536;SDS011;14204;51.262;5.488;2023-04-01T01:57:34;2.45;;;2.03;;
26536;SDS011;14204;51.262;5.488;2023-04-01T02:00:05;3.92;;;1.88;;
26536;SDS011;14204;51.262;5.488;2023-04-01T02:02:39;4.05;;;2.47;;
26536;SDS011;14204;51.262;5.488;2023-04-01T02:05:07;3.45;;;2.20;;
26536;SDS011;14204;51.262;5.488;2023-04-01T02:07:36;4.80;;;2.83;;
26536;SDS011;14204;51.262;5.488;2023-04-01T02:10:04;7.55;;;3.20;;
26536;SDS011;14204;51.262;5.488;2023-04-01T02:12:31;4.63;;;2.90;;
26536;SDS011;14204;51.262;5.488;2023-04-01T02:15:08;7.05;;;3.15;;
26536;SDS011;14204;51.262;5.488;2023-04-01T02:17:38;5.78;;;2.80;;
26536;SDS011;14204;51.262;5.488;2023-04-01T02:20:09;5.50;;;3.15;;
26536;SDS011;14204;51.262;5.488;2023-04-01T02:22:46;7.50;;;3.45;;
26536;SDS011;14204;51.262;5.488;2023-04-01T02:25:18;5.88;;;2.67;;
26536;SDS011;14204;51.262;5.488;2023-04-01T02:27:48;7.40;;;3.38;;
26536;SDS011;14204;51.262;5.488;2023-04-01T02:30:15;7.75;;;3.30;;
26536;SDS011;14204;51.262;5.488;2023-04-01T02:32:42;7.50;;;2.53;;
26536;SDS011;14204;51.262;5.488;2023-04-01T02:35:09;6.32;;;3.22;;
26536;SDS011;14204;51.262;5.488;2023-04-01T02:37:37;7.55;;;2.95;;
26536;SDS011;14204;51.262;5.488;2023-04-01T02:40:07;6.32;;;2.20;;
26536;SDS011;14204;51.262;5.488;2023-04-01T02:42:34;6.90;;;2.72;;
26536;SDS011;14204;51.262;5.488;2023-04-01T02:45:01;3.97;;;2.65;;
26536;SDS011;14204;51.262;5.488;2023-04-01T02:47:27;6.22;;;3.58;;
26536;SDS011;14204;51.262;5.488;2023-04-01T02:49:54;7.30;;;3.67;;
26536;SDS011;14204;51.262;5.488;2023-04-01T02:52:23;10.15;;;4.60;;
26536;SDS011;14204;51.262;5.488;2023-04-01T02:54:49;6.65;;;4.97;;
26536;SDS011;14204;51.262;5.488;2023-04-01T02:57:15;8.55;;;4.78;;
26536;SDS011;14204;51.262;5.488;2023-04-01T02:59:41;7.72;;;5.05;;
26536;SDS011;14204;51.262;5.488;2023-04-01T03:02:06;8.57;;;5.05;;
26536;SDS011;14204;51.262;5.488;2023-04-01T03:04:32;6.75;;;5.07;;
26536;SDS011;14204;51.262;5.488;2023-04-01T03:07:01;6.68;;;5.45;;
26536;SDS011;14204;51.262;5.488;2023-04-01T03:09:27;5.78;;;4.93;;
26536;SDS011;14204;51.262;5.488;2023-04-01T03:11:53;6.97;;;5.85;;
26536;SDS011;14204;51.262;5.488;2023-04-01T03:14:19;7.35;;;5.45;;
26536;SDS011;14204;51.262;5.488;2023-04-01T03:16:45;8.63;;;5.75;;
26536;SDS011;14204;51.262;5.488;2023-04-01T03:19:11;5.80;;;5.18;;
26536;SDS011;14204;51.262;5.488;2023-04-01T03:21:36;5.60;;;4.75;;
26536;SDS011;14204;51.262;5.488;2023-04-01T03:24:02;7.07;;;4.22;;
26536;SDS011;14204;51.262;5.488;2023-04-01T03:26:28;6.07;;;4.72;;
26536;SDS011;14204;51.262;5.488;2023-04-01T03:28:53;5.05;;;4.55;;
26536;SDS011;14204;51.262;5.488;2023-04-01T03:31:20;4.65;;;4.20;;
26536;SDS011;14204;51.262;5.488;2023-04-01T03:33:46;7.97;;;4.45;;
26536;SDS011;14204;51.262;5.488;2023-04-01T03:36:12;6.82;;;4.18;;
26536;SDS011;14204;51.262;5.488;2023-04-01T03:38:39;5.25;;;3.78;;
26536;SDS011;14204;51.262;5.488;2023-04-01T03:41:06;4.07;;;3.70;;
26536;SDS011;14204;51.262;5.488;2023-04-01T03:43:31;4.72;;;4.00;;
26536;SDS011;14204;51.262;5.488;2023-04-01T03:45:57;4.95;;;4.22;;
26536;SDS011;14204;51.262;5.488;2023-04-01T03:48:23;5.38;;;4.88;;
26536;SDS011;14204;51.262;5.488;2023-04-01T03:50:50;6.78;;;4.80;;
26536;SDS011;14204;51.262;5.488;2023-04-01T03:53:16;4.75;;;4.00;;
26536;SDS011;14204;51.262;5.488;2023-04-01T03:55:41;5.63;;;4.45;;
26536;SDS011;14204;51.262;5.488;2023-04-01T03:58:07;5.25;;;4.75;;
26536;SDS011;14204;51.262;5.488;2023-04-01T04:00:33;6.10;;;4.97;;
26536;SDS011;14204;51.262;5.488;2023-04-01T04:02:59;6.10;;;5.53;;
26536;SDS011;14204;51.262;5.488;2023-04-01T04:05:25;6.82;;;5.93;;
26536;SDS011;14204;51.262;5.488;2023-04-01T04:07:52;8.68;;;5.90;;
26536;SDS011;14204;51.262;5.488;2023-04-01T04:10:18;6.50;;;5.90;;
26536;SDS011;14204;51.262;5.488;2023-04-01T04:12:44;7.13;;;6.43;;
26536;SDS011;14204;51.262;5.488;2023-04-01T04:15:10;9.13;;;7.38;;
26536;SDS011;14204;51.262;5.488;2023-04-01T04:17:36;10.07;;;7.00;;
26536;SDS011;14204;51.262;5.488;2023-04-01T04:20:02;8.27;;;7.35;;
26536;SDS011;14204;51.262;5.488;2023-04-01T04:22:28;11.13;;;7.68;;
26536;SDS011;14204;51.262;5.488;2023-04-01T04:24:53;10.35;;;8.70;;
26536;SDS011;14204;51.262;5.488;2023-04-01T04:27:19;10.75;;;8.95;;
26536;SDS011;14204;51.262;5.488;2023-04-01T04:29:45;14.43;;;9.32;;
26536;SDS011;14204;51.262;5.488;2023-04-01T04:32:10;10.98;;;9.88;;
26536;SDS011;14204;51.262;5.488;2023-04-01T04:34:36;10.90;;;9.32;;
26536;SDS011;14204;51.262;5.488;2023-04-01T04:37:02;11.40;;;9.85;;
26536;SDS011;14204;51.262;5.488;2023-04-01T04:39:28;11.23;;;9.10;;
26536;SDS011;14204;51.262;5.488;2023-04-01T04:41:54;11.85;;;8.93;;
26536;SDS011;14204;51.262;5.488;2023-04-01T04:44:20;11.90;;;8.75;;
26536;SDS011;14204;51.262;5.488;2023-04-01T04:46:45;11.55;;;9.43;;
26536;SDS011;14204;51.262;5.488;2023-04-01T04:49:11;11.18;;;9.32;;
26536;SDS011;14204;51.262;5.488;2023-04-01T04:51:37;11.45;;;9.73;;
26536;SDS011;14204;51.262;5.488;2023-04-01T04:54:03;13.98;;;9.95;;
26536;SDS011;14204;51.262;5.488;2023-04-01T04:56:29;10.75;;;9.18;;
26536;SDS011;14204;51.262;5.488;2023-04-01T04:58:55;12.40;;;9.82;;
26536;SDS011;14204;51.262;5.488;2023-04-01T05:01:21;10.02;;;8.98;;
26536;SDS011;14204;51.262;5.488;2023-04-01T05:03:47;10.68;;;8.82;;
26536;SDS011;14204;51.262;5.488;2023-04-01T05:06:13;11.30;;;9.65;;
26536;SDS011;14204;51.262;5.488;2023-04-01T05:08:41;10.13;;;9.02;;
26536;SDS011;14204;51.262;5.488;2023-04-01T05:11:09;10.93;;;9.05;;
26536;SDS011;14204;51.262;5.488;2023-04-01T05:13:37;10.65;;;8.55;;
26536;SDS011;14204;51.262;5.488;2023-04-01T05:16:03;12.18;;;8.50;;
26536;SDS011;14204;51.262;5.488;2023-04-01T05:18:32;8.27;;;7.25;;
26536;SDS011;14204;51.262;5.488;2023-04-01T05:20:57;10.98;;;9.25;;
26536;SDS011;14204;51.262;5.488;2023-04-01T05:23:23;9.50;;;8.50;;
26536;SDS011;14204;51.262;5.488;2023-04-01T05:25:49;9.60;;;8.60;;
26536;SDS011;14204;51.262;5.488;2023-04-01T05:28:16;9.43;;;8.50;;
26536;SDS011;14204;51.262;5.488;2023-04-01T05:30:42;9.05;;;7.70;;
26536;SDS011;14204;51.262;5.488;2023-04-01T05:33:09;11.70;;;8.18;;
26536;SDS011;14204;51.262;5.488;2023-04-01T05:35:36;8.68;;;7.15;;
26536;SDS011;14204;51.262;5.488;2023-04-01T05:38:02;7.95;;;7.15;;
26536;SDS011;14204;51.262;5.488;2023-04-01T05:40:28;11.13;;;7.90;;
26536;SDS011;14204;51.262;5.488;2023-04-01T05:42:54;7.65;;;6.72;;
26536;SDS011;14204;51.262;5.488;2023-04-01T05:45:19;8.43;;;7.55;;
26536;SDS011;14204;51.262;5.488;2023-04-01T05:47:45;8.55;;;7.68;;
26536;SDS011;14204;51.262;5.488;2023-04-01T05:50:11;8.73;;;7.75;;
26536;SDS011;14204;51.262;5.488;2023-04-01T05:52:37;8.82;;;6.80;;
26536;SDS011;14204;51.262;5.488;2023-04-01T05:55:03;7.82;;;6.97;;
26536;SDS011;14204;51.262;5.488;2023-04-01T05:57:30;7.80;;;6.95;;
26536;SDS011;14204;51.262;5.488;2023-04-01T05:59:55;7.40;;;6.70;;
26536;SDS011;14204;51.262;5.488;2023-04-01T06:02:21;10.27;;;8.05;;
26536;SDS011;14204;51.262;5.488;2023-04-01T06:04:47;10.40;;;8.35;;
26536;SDS011;14204;51.262;5.488;2023-04-01T06:07:13;9.15;;;7.88;;
26536;SDS011;14204;51.262;5.488;2023-04-01T06:09:40;7.15;;;6.35;;
26536;SDS011;14204;51.262;5.488;2023-04-01T06:15:41;8.90;;;6.55;;
26536;SDS011;14204;51.262;5.488;2023-04-01T06:18:04;6.88;;;5.97;;
26536;SDS011;14204;51.262;5.488;2023-04-01T06:26:53;6.68;;;5.50;;
26536;SDS011;14204;51.262;5.488;2023-04-01T06:29:26;5.97;;;5.43;;
26536;SDS011;14204;51.262;5.488;2023-04-01T06:45:11;6.53;;;5.93;;
26536;SDS011;14204;51.262;5.488;2023-04-01T06:53:24;6.78;;;6.13;;
26536;SDS011;14204;51.262;5.488;2023-04-01T06:56:10;5.65;;;5.13;;
26536;SDS011;14204;51.262;5.488;2023-04-01T07:01:28;6.10;;;5.57;;
26536;SDS011;14204;51.262;5.488;2023-04-01T07:04:01;5.18;;;4.68;;
26536;SDS011;14204;51.262;5.488;2023-04-01T07:06:38;6.25;;;5.68;;
26536;SDS011;14204;51.262;5.488;2023-04-01T07:09:11;6.68;;;4.90;;
26536;SDS011;14204;51.262;5.488;2023-04-01T07:11:41;6.30;;;5.70;;
26536;SDS011;14204;51.262;5.488;2023-04-01T07:17:13;7.30;;;6.60;;
26536;SDS011;14204;51.262;5.488;2023-04-01T07:19:56;6.15;;;5.65;;
26536;SDS011;14204;51.262;5.488;2023-04-01T07:22:52;5.25;;;4.75;;
26536;SDS011;14204;51.262;5.488;2023-04-01T07:25:25;6.20;;;5.70;;
26536;SDS011;14204;51.262;5.488;2023-04-01T07:28:01;4.78;;;4.28;;
26536;SDS011;14204;51.262;5.488;2023-04-01T07:30:29;4.90;;;4.50;;
26536;SDS011;14204;51.262;5.488;2023-04-01T07:33:06;6.00;;;4.75;;
26536;SDS011;14204;51.262;5.488;2023-04-01T07:35:50;5.75;;;5.25;;
26536;SDS011;14204;51.262;5.488;2023-04-01T07:57:33;19.38;;;12.50;;
26536;SDS011;14204;51.262;5.488;2023-04-01T08:26:23;13.85;;;10.32;;
26536;SDS011;14204;51.262;5.488;2023-04-01T08:29:16;15.25;;;10.32;;
26536;SDS011;14204;51.262;5.488;2023-04-01T08:34:39;9.27;;;8.13;;
26536;SDS011;14204;51.262;5.488;2023-04-01T08:37:15;11.20;;;7.90;;
26536;SDS011;14204;51.262;5.488;2023-04-01T08:39:47;9.40;;;7.70;;
26536;SDS011;14204;51.262;5.488;2023-04-01T09:04:05;9.77;;;7.70;;
26536;SDS011;14204;51.262;5.488;2023-04-01T09:23:28;19.98;;;13.25;;
26536;SDS011;14204;51.262;5.488;2023-04-01T09:26:20;23.10;;;13.40;;
26536;SDS011;14204;51.262;5.488;2023-04-01T09:31:40;24.42;;;14.55;;
26536;SDS011;14204;51.262;5.488;2023-04-01T09:40:16;22.73;;;13.73;;
26536;SDS011;14204;51.262;5.488;2023-04-01T10:13:42;23.83;;;12.55;;
26536;SDS011;14204;51.262;5.488;2023-04-01T10:19:39;20.63;;;12.02;;
26536;SDS011;14204;51.262;5.488;2023-04-01T10:22:24;16.73;;;11.32;;
26536;SDS011;14204;51.262;5.488;2023-04-01T10:33:37;14.57;;;10.52;;
26536;SDS011;14204;51.262;5.488;2023-04-01T10:44:03;13.95;;;9.65;;
26536;SDS011;14204;51.262;5.488;2023-04-01T11:19:02;5.40;;;3.85;;
26536;SDS011;14204;51.262;5.488;2023-04-01T11:36:06;5.72;;;4.88;;
26536;SDS011;14204;51.262;5.488;2023-04-01T11:41:32;4.85;;;4.32;;
26536;SDS011;14204;51.262;5.488;2023-04-01T11:52:17;5.28;;;3.28;;
26536;SDS011;14204;51.262;5.488;2023-04-01T12:03:28;3.85;;;2.65;;
26536;SDS011;14204;51.262;5.488;2023-04-01T12:09:09;3.65;;;3.35;;
26536;SDS011;14204;51.262;5.488;2023-04-01T12:17:55;1.95;;;1.52;;
26536;SDS011;14204;51.262;5.488;2023-04-01T12:26:00;1.75;;;1.52;;
26536;SDS011;14204;51.262;5.488;2023-04-01T12:31:42;3.28;;;2.75;;
26536;SDS011;14204;51.262;5.488;2023-04-01T12:47:53;2.35;;;2.13;;
26536;SDS011;14204;51.262;5.488;2023-04-01T12:51:35;3.47;;;3.25;;
26536;SDS011;14204;51.262;5.488;2023-04-01T12:56:23;4.32;;;3.92;;
26536;SDS011;14204;51.262;5.488;2023-04-01T13:01:23;4.45;;;3.13;;
26536;SDS011;14204;51.262;5.488;2023-04-01T13:12:32;2.60;;;2.30;;
26536;SDS011;14204;51.262;5.488;2023-04-01T13:18:14;3.88;;;3.38;;
26536;SDS011;14204;51.262;5.488;2023-04-01T13:23:55;3.17;;;2.95;;
26536;SDS011;14204;51.262;5.488;2023-04-01T13:32:54;4.32;;;3.95;;
26536;SDS011;14204;51.262;5.488;2023-04-01T13:44:14;5.30;;;4.20;;
26536;SDS011;14204;51.262;5.488;2023-04-01T13:46:48;4.18;;;3.78;;
26536;SDS011;14204;51.262;5.488;2023-04-01T14:08:54;5.80;;;3.78;;
26536;SDS011;14204;51.262;5.488;2023-04-01T14:11:44;4.50;;;4.05;;
26536;SDS011;14204;51.262;5.488;2023-04-01T14:25:53;8.07;;;5.97;;
26536;SDS011;14204;51.262;5.488;2023-04-01T14:28:48;8.63;;;7.40;;
26536;SDS011;14204;51.262;5.488;2023-04-01T14:52:11;7.72;;;5.97;;
26536;SDS011;14204;51.262;5.488;2023-04-01T14:54:48;8.75;;;5.60;;
26536;SDS011;14204;51.262;5.488;2023-04-01T14:57:22;7.97;;;5.65;;
26536;SDS011;14204;51.262;5.488;2023-04-01T15:00:14;5.80;;;5.30;;
26536;SDS011;14204;51.262;5.488;2023-04-01T15:02:45;6.35;;;5.75;;
26536;SDS011;14204;51.262;5.488;2023-04-01T15:08:29;5.47;;;4.97;;
26536;SDS011;14204;51.262;5.488;2023-04-01T15:11:24;5.50;;;4.85;;
26536;SDS011;14204;51.262;5.488;2023-04-01T15:14:17;4.60;;;4.18;;
26536;SDS011;14204;51.262;5.488;2023-04-01T15:20:22;5.53;;;5.03;;
26536;SDS011;14204;51.262;5.488;2023-04-01T15:22:57;5.63;;;4.50;;
26536;SDS011;14204;51.262;5.488;2023-04-01T15:25:30;6.40;;;5.70;;
26536;SDS011;14204;51.262;5.488;2023-04-01T15:30:54;6.55;;;5.80;;
26536;SDS011;14204;51.262;5.488;2023-04-01T15:49:52;8.52;;;7.70;;
26536;SDS011;14204;51.262;5.488;2023-04-01T15:55:33;17.55;;;11.38;;
26536;SDS011;14204;51.262;5.488;2023-04-01T16:01:26;20.33;;;14.10;;
26536;SDS011;14204;51.262;5.488;2023-04-01T16:07:07;6.38;;;5.75;;
26536;SDS011;14204;51.262;5.488;2023-04-01T16:15:44;49.58;;;36.03;;
26536;SDS011;14204;51.262;5.488;2023-04-01T16:29:00;8.65;;;7.75;;
26536;SDS011;14204;51.262;5.488;2023-04-01T16:37:20;8.10;;;7.28;;
26536;SDS011;14204;51.262;5.488;2023-04-01T16:42:58;15.70;;;13.68;;
26536;SDS011;14204;51.262;5.488;2023-04-01T16:45:45;20.73;;;17.40;;
26536;SDS011;14204;51.262;5.488;2023-04-01T16:51:15;3.72;;;3.40;;
26536;SDS011;14204;51.262;5.488;2023-04-01T16:56:11;3.40;;;3.10;;
26536;SDS011;14204;51.262;5.488;2023-04-01T16:58:42;3.90;;;3.60;;
26536;SDS011;14204;51.262;5.488;2023-04-01T17:01:20;4.07;;;3.33;;
26536;SDS011;14204;51.262;5.488;2023-04-01T17:03:52;3.67;;;3.38;;
26536;SDS011;14204;51.262;5.488;2023-04-01T17:06:35;3.60;;;3.30;;
26536;SDS011;14204;51.262;5.488;2023-04-01T17:17:37;4.63;;;4.22;;
26536;SDS011;14204;51.262;5.488;2023-04-01T17:23:26;9.70;;;6.03;;
26536;SDS011;14204;51.262;5.488;2023-04-01T17:28:39;9.15;;;6.68;;
26536;SDS011;14204;51.262;5.488;2023-04-01T17:36:55;7.13;;;6.35;;
26536;SDS011;14204;51.262;5.488;2023-04-01T17:39:28;9.70;;;6.70;;
26536;SDS011;14204;51.262;5.488;2023-04-01T17:47:29;8.45;;;6.88;;
26536;SDS011;14204;51.262;5.488;2023-04-01T17:50:44;9.20;;;6.20;;
26536;SDS011;14204;51.262;5.488;2023-04-01T18:12:59;12.25;;;10.27;;
26536;SDS011;14204;51.262;5.488;2023-04-01T18:26:49;14.00;;;12.07;;
26536;SDS011;14204;51.262;5.488;2023-04-01T18:29:40;12.85;;;10.55;;
26536;SDS011;14204;51.262;5.488;2023-04-01T18:49:41;22.92;;;18.25;;
26536;SDS011;14204;51.262;5.488;2023-04-01T18:51:58;21.67;;;15.00;;
26536;SDS011;14204;51.262;5.488;2023-04-01T18:54:45;21.42;;;15.65;;
26536;SDS011;14204;51.262;5.488;2023-04-01T18:57:46;19.27;;;15.07;;
26536;SDS011;14204;51.262;5.488;2023-04-01T19:00:37;19.13;;;14.05;;
26536;SDS011;14204;51.262;5.488;2023-04-01T19:03:25;23.30;;;15.32;;
26536;SDS011;14204;51.262;5.488;2023-04-01T19:06:27;19.45;;;13.73;;
26536;SDS011;14204;51.262;5.488;2023-04-01T19:09:09;23.75;;;15.65;;
26536;SDS011;14204;51.262;5.488;2023-04-01T19:20:06;23.25;;;17.02;;
26536;SDS011;14204;51.262;5.488;2023-04-01T19:22:42;19.30;;;13.73;;
26536;SDS011;14204;51.262;5.488;2023-04-01T19:31:08;15.98;;;11.93;;
26536;SDS011;14204;51.262;5.488;2023-04-01T19:33:45;14.05;;;11.35;;
26536;SDS011;14204;51.262;5.488;2023-04-01T19:38:59;10.07;;;7.55;;
26536;SDS011;14204;51.262;5.488;2023-04-01T19:42:01;9.00;;;7.55;;
26536;SDS011;14204;51.262;5.488;2023-04-01T19:45:04;11.35;;;9.30;;
26536;SDS011;14204;51.262;5.488;2023-04-01T19:50:58;10.63;;;8.65;;
26536;SDS011;14204;51.262;5.488;2023-04-01T19:53:33;12.05;;;8.45;;
26536;SDS011;14204;51.262;5.488;2023-04-01T19:58:44;11.55;;;8.32;;
26536;SDS011;14204;51.262;5.488;2023-04-01T20:01:27;11.70;;;8.65;;
26536;SDS011;14204;51.262;5.488;2023-04-01T20:04:04;11.75;;;8.55;;
26536;SDS011;14204;51.262;5.488;2023-04-01T20:12:49;13.15;;;9.38;;
26536;SDS011;14204;51.262;5.488;2023-04-01T20:15:36;16.52;;;11.57;;
26536;SDS011;14204;51.262;5.488;2023-04-01T20:20:53;14.50;;;10.88;;
26536;SDS011;14204;51.262;5.488;2023-04-01T20:26:04;14.10;;;11.32;;
26536;SDS011;14204;51.262;5.488;2023-04-01T20:28:43;13.85;;;11.18;;
26536;SDS011;14204;51.262;5.488;2023-04-01T20:34:05;13.65;;;11.15;;
26536;SDS011;14204;51.262;5.488;2023-04-01T20:36:34;15.85;;;11.27;;
26536;SDS011;14204;51.262;5.488;2023-04-01T20:45:14;12.43;;;10.07;;
26536;SDS011;14204;51.262;5.488;2023-04-01T20:51:06;15.23;;;11.80;;
26536;SDS011;14204;51.262;5.488;2023-04-01T20:53:43;14.75;;;11.65;;
26536;SDS011;14204;51.262;5.488;2023-04-01T21:02:19;15.93;;;12.75;;
26536;SDS011;14204;51.262;5.488;2023-04-01T21:10:29;14.68;;;11.02;;
26536;SDS011;14204;51.262;5.488;2023-04-01T21:21:46;11.00;;;9.07;;
26536;SDS011;14204;51.262;5.488;2023-04-01T21:24:36;10.38;;;8.48;;
26536;SDS011;14204;51.262;5.488;2023-04-01T21:30:15;11.85;;;9.95;;
26536;SDS011;14204;51.262;5.488;2023-04-01T21:44:38;14.15;;;11.57;;
26536;SDS011;14204;51.262;5.488;2023-04-01T22:00:32;11.40;;;9.77;;
26536;SDS011;14204;51.262;5.488;2023-04-01T22:11:07;15.15;;;13.35;;
26536;SDS011;14204;51.262;5.488;2023-04-01T22:16:49;17.40;;;12.98;;
26536;SDS011;14204;51.262;5.488;2023-04-01T22:22:39;16.48;;;13.80;;
26536;SDS011;14204;51.262;5.488;2023-04-01T22:27:46;15.90;;;12.23;;
26536;SDS011;14204;51.262;5.488;2023-04-01T22:30:24;16.92;;;12.32;;
26536;SDS011;14204;51.262;5.488;2023-04-01T22:41:02;14.60;;;12.20;;
26536;SDS011;14204;51.262;5.488;2023-04-01T22:43:51;16.13;;;12.73;;
26536;SDS011;14204;51.262;5.488;2023-04-01T22:46:20;16.52;;;13.35;;
26536;SDS011;14204;51.262;5.488;2023-04-01T22:56:44;14.18;;;11.40;;
26536;SDS011;14204;51.262;5.488;2023-04-01T22:59:22;14.50;;;12.07;;
26536;SDS011;14204;51.262;5.488;2023-04-01T23:01:51;18.52;;;12.68;;
26536;SDS011;14204;51.262;5.488;2023-04-01T23:04:24;18.20;;;14.00;;
26536;SDS011;14204;51.262;5.488;2023-04-01T23:06:57;15.27;;;12.93;;
26536;SDS011;14204;51.262;5.488;2023-04-01T23:09:28;17.00;;;13.35;;
26536;SDS011;14204;51.262;5.488;2023-04-01T23:12:01;16.20;;;13.05;;
26536;SDS011;14204;51.262;5.488;2023-04-01T23:14:34;12.95;;;11.20;;
26536;SDS011;14204;51.262;5.488;2023-04-01T23:38:17;11.45;;;10.25;;
26536;SDS011;14204;51.262;5.488;2023-04-01T23:40:47;10.35;;;9.35;;
26536;SDS011;14204;51.262;5.488;2023-04-01T23:43:25;11.70;;;9.55;;
26536;SDS011;14204;51.262;5.488;2023-04-01T23:45:56;10.52;;;9.43;;
26536;SDS011;14204;51.262;5.488;2023-04-01T23:48:26;11.20;;;9.32;;
26536;SDS011;14204;51.262;5.488;2023-04-01T23:50:56;10.77;;;9.07;;
26536;SDS011;14204;51.262;5.488;2023-04-01T23:53:26;9.70;;;8.32;;
26536;SDS011;14204;51.262;5.488;2023-04-01T23:56:00;9.30;;;8.40;;
26536;SDS011;14204;51.262;5.488;2023-04-01T23:58:38;9.27;;;8.25;;
